This is the latest recevied weather packets stored in our database for station/object DC2MP. If no packets are shown the sender has not sent any weather packets the latest 10 day(s).
| Time | Temp. | Humidity | Pressure | Rain* | Wind** | Luminosity | Snow |
|---|---|---|---|---|---|---|---|
| 1777715344 | 20.56° C | 39% | 1022.1 hPa | 0 mm | - | - | - |
| 1777711743 | 19.44° C | 39% | 1022.5 hPa | 0 mm | - | - | - |
| 1777708143 | 16.11° C | 50% | 1022.8 hPa | 0 mm | - | - | - |
| 1777704544 | 13.33° C | 63% | 1023.3 hPa | 0 mm | - | - | - |
| 1777700943 | 4.44° C | 86% | 1023.6 hPa | 0 mm | - | - | - |
| 1777697343 | 3.89° C | 84% | 1023.3 hPa | 0 mm | - | - | - |
| 1777690144 | 4.44° C | 82% | 1023.3 hPa | 0 mm | - | - | - |
| 1777686543 | 5.56° C | 84% | 1023.5 hPa | 0 mm | - | - | - |
| 1777682943 | 6.11° C | 78% | 1023.8 hPa | 0 mm | - | - | - |
| 1777679343 | 6.67° C | 75% | 1024.1 hPa | 0 mm | - | - | - |
| 1777675743 | 6.67° C | 72% | 1024.3 hPa | 0 mm | - | - | - |
| 1777672143 | 7.78° C | 70% | 1024.2 hPa | 0 mm | - | - | - |
| 1777664943 | 11.11° C | 59% | 1023.9 hPa | 0 mm | - | - | - |
| 1777661343 | 12.22° C | 56% | 1023.4 hPa | 0 mm | - | - | - |
| 1777657743 | 17.78° C | 33% | 1023 hPa | 0 mm | - | - | - |
| 1777650543 | 20° C | 28% | 1023 hPa | 0 mm | - | - | - |
| 1777646943 | 20.56° C | 29% | 1023.1 hPa | 0 mm | - | - | - |
| 1777643343 | 20° C | 30% | 1023.4 hPa | 0 mm | - | - | - |
| 1777639743 | 18.89° C | 33% | 1023.8 hPa | 0 mm | - | - | - |
| 1777636143 | 17.78° C | 36% | 1024 hPa | 0 mm | - | - | - |
| 1777632543 | 17.22° C | 39% | 1024.4 hPa | 0 mm | - | - | - |
| 1777628944 | 15° C | 41% | 1024.9 hPa | 0 mm | - | - | - |
| 1777625343 | 13.33° C | 47% | 1024.7 hPa | 0 mm | - | - | - |
| 1777621743 | 10° C | 58% | 1024.8 hPa | 0 mm | - | - | - |
| 1777618144 | 6.67° C | 67% | 1024.9 hPa | 0 mm | - | - | - |
* Rain latest hour (hover to see other rain measurements)
** Current wind speed in m/s (hover to see current wind gust speed)